Time;durP1;ratioP1;P1;durP2;ratioP2;P2;SDS_P1;SDS_P2;PMS_P1;PMS_P2;Temp;Humidity;BMP_temperature;BMP_pressure;BME280_temperature;BME280_humidity;BME280_pressure;Samples;Min_cycle;Max_cycle;Signal;HPM_P1;HPM_P2
2024/03/22 00:01:04;;;;;;;5.40;4.63;;;;;;;;;;6245252;23;20023;-93
2024/03/22 00:03:31;;;;;;;8.48;4.88;;;;;;;;;;6220144;23;20027;-93
2024/03/22 00:05:57;;;;;;;5.25;3.78;;;;;;;;;;6220538;23;20020;-93
2024/03/22 00:08:24;;;;;;;5.85;4.68;;;;;;;;;;6220710;23;20034;-94
2024/03/22 00:10:51;;;;;;;5.35;3.97;;;;;;;;;;6219948;23;20028;-93
2024/03/22 00:13:17;;;;;;;4.05;3.70;;;;;;;;;;6245078;23;20020;-93
2024/03/22 00:15:44;;;;;;;9.07;4.57;;;;;;;;;;6221067;23;20024;-93
2024/03/22 00:18:10;;;;;;;6.28;4.15;;;;;;;;;;6240919;23;20459;-93
2024/03/22 00:20:36;;;;;;;6.57;4.97;;;;;;;;;;6222090;23;20020;-93
2024/03/22 00:23:03;;;;;;;4.65;4.13;;;;;;;;;;6245255;23;20038;-93
2024/03/22 00:25:30;;;;;;;8.55;5.00;;;;;;;;;;6220080;23;20027;-93
2024/03/22 00:27:56;;;;;;;5.95;4.05;;;;;;;;;;6219990;23;20020;-93
2024/03/22 00:30:22;;;;;;;7.10;4.38;;;;;;;;;;6245037;23;20341;-93
2024/03/22 00:32:48;;;;;;;9.65;4.78;;;;;;;;;;6220247;23;20379;-93
2024/03/22 00:35:14;;;;;;;5.28;4.00;;;;;;;;;;6219941;23;20361;-93
2024/03/22 00:37:41;;;;;;;4.53;4.00;;;;;;;;;;6220098;23;20020;-90
2024/03/22 00:40:07;;;;;;;6.00;4.70;;;;;;;;;;6219618;23;20020;-93
2024/03/22 00:42:33;;;;;;;5.25;3.90;;;;;;;;;;6219971;23;20074;-93
2024/03/22 00:45:00;;;;;;;8.25;4.60;;;;;;;;;;6220101;23;20066;-93
2024/03/22 00:47:26;;;;;;;5.88;4.28;;;;;;;;;;6220098;23;20016;-93
2024/03/22 00:49:52;;;;;;;4.30;3.92;;;;;;;;;;6245268;23;20020;-93
2024/03/22 00:52:18;;;;;;;7.22;4.15;;;;;;;;;;6219908;23;20017;-93
2024/03/22 00:54:45;;;;;;;7.25;5.20;;;;;;;;;;6245190;23;20031;-93
2024/03/22 00:57:11;;;;;;;6.75;5.20;;;;;;;;;;6219613;23;20020;-93
2024/03/22 00:59:37;;;;;;;6.15;4.75;;;;;;;;;;6245367;23;20028;-93
2024/03/22 01:02:03;;;;;;;9.30;5.80;;;;;;;;;;6245157;23;20016;-93
2024/03/22 01:04:30;;;;;;;6.32;5.13;;;;;;;;;;6221531;23;20023;-94
2024/03/22 01:06:56;;;;;;;9.98;4.72;;;;;;;;;;6220240;23;20020;-94
2024/03/22 01:09:22;;;;;;;7.70;5.53;;;;;;;;;;6245195;23;20033;-93
2024/03/22 01:11:49;;;;;;;5.72;4.78;;;;;;;;;;6220028;23;20024;-92
2024/03/22 01:14:15;;;;;;;8.85;4.72;;;;;;;;;;6220383;23;20044;-93
2024/03/22 01:16:42;;;;;;;8.88;4.95;;;;;;;;;;6220870;23;20027;-93
2024/03/22 01:19:08;;;;;;;10.63;4.68;;;;;;;;;;6220234;23;20031;-94
2024/03/22 01:21:35;;;;;;;9.00;5.60;;;;;;;;;;6246087;23;20030;-93
2024/03/22 01:24:02;;;;;;;4.88;4.40;;;;;;;;;;6246099;23;20085;-93
2024/03/22 01:26:28;;;;;;;6.88;5.32;;;;;;;;;;6220814;23;20020;-93
2024/03/22 01:28:54;;;;;;;6.95;4.68;;;;;;;;;;6220859;23;20031;-93
2024/03/22 01:31:21;;;;;;;8.88;4.82;;;;;;;;;;6248557;23;20034;-94
2024/03/22 01:33:47;;;;;;;8.43;5.43;;;;;;;;;;6265354;22;20074;-93
2024/03/22 01:36:13;;;;;;;7.57;4.95;;;;;;;;;;6221493;23;20024;-93
2024/03/22 01:38:39;;;;;;;9.40;4.55;;;;;;;;;;6245638;23;20016;-93
2024/03/22 01:41:05;;;;;;;8.25;5.45;;;;;;;;;;6245561;23;20020;-93
2024/03/22 01:43:32;;;;;;;7.20;5.25;;;;;;;;;;6220278;23;20026;-93
2024/03/22 01:45:58;;;;;;;6.95;4.57;;;;;;;;;;6245602;23;20020;-94
2024/03/22 01:48:24;;;;;;;8.43;5.38;;;;;;;;;;6220436;23;20027;-93
2024/03/22 01:50:51;;;;;;;5.85;4.05;;;;;;;;;;6220871;23;20445;-93
2024/03/22 01:53:17;;;;;;;7.28;4.30;;;;;;;;;;6221977;23;20341;-93
2024/03/22 01:55:44;;;;;;;9.05;4.88;;;;;;;;;;6222167;23;20017;-93
2024/03/22 01:58:10;;;;;;;8.63;4.63;;;;;;;;;;6247035;23;20026;-93
2024/03/22 02:00:38;;;;;;;7.97;4.75;;;;;;;;;;6222194;23;20375;-94
2024/03/22 02:03:05;;;;;;;7.68;4.72;;;;;;;;;;6222179;23;20024;-93
2024/03/22 02:05:31;;;;;;;7.32;4.75;;;;;;;;;;6221368;23;20021;-93
2024/03/22 02:07:57;;;;;;;5.55;4.65;;;;;;;;;;6221928;23;20020;-93
2024/03/22 02:10:23;;;;;;;6.60;4.72;;;;;;;;;;6222059;23;20016;-93
2024/03/22 02:12:50;;;;;;;7.32;5.07;;;;;;;;;;6247186;23;20020;-93
2024/03/22 02:15:16;;;;;;;6.50;4.80;;;;;;;;;;6221809;23;20016;-93
2024/03/22 02:17:42;;;;;;;10.93;5.30;;;;;;;;;;6221923;23;20047;-93
2024/03/22 02:20:10;;;;;;;10.00;5.88;;;;;;;;;;6221647;23;20024;-94
2024/03/22 02:22:36;;;;;;;6.22;5.63;;;;;;;;;;6221719;23;20020;-93
2024/03/22 02:25:02;;;;;;;10.35;5.20;;;;;;;;;;6221778;23;20504;-93
2024/03/22 02:27:28;;;;;;;8.27;5.60;;;;;;;;;;6222341;23;20062;-94
2024/03/22 02:29:55;;;;;;;7.72;5.57;;;;;;;;;;6247245;23;20028;-93
2024/03/22 02:32:21;;;;;;;10.75;5.88;;;;;;;;;;6222341;23;20078;-94
2024/03/22 02:34:47;;;;;;;7.88;4.90;;;;;;;;;;6247224;23;20027;-93
2024/03/22 02:37:14;;;;;;;7.75;5.35;;;;;;;;;;6221565;23;20020;-93
2024/03/22 02:39:40;;;;;;;9.80;5.93;;;;;;;;;;6247223;23;20031;-93
2024/03/22 02:42:06;;;;;;;7.70;5.72;;;;;;;;;;6222359;23;20023;-93
2024/03/22 02:44:33;;;;;;;8.07;5.88;;;;;;;;;;6247710;23;20020;-93
2024/03/22 02:46:59;;;;;;;6.07;5.28;;;;;;;;;;6231789;22;20012;-93
2024/03/22 02:49:26;;;;;;;9.55;5.72;;;;;;;;;;6258866;23;20099;-93
2024/03/22 02:51:52;;;;;;;8.85;5.63;;;;;;;;;;6247544;23;20071;-93
2024/03/22 02:54:19;;;;;;;7.72;6.20;;;;;;;;;;6246982;23;20024;-93
2024/03/22 02:56:45;;;;;;;9.77;6.63;;;;;;;;;;6221864;23;20024;-93
2024/03/22 02:59:11;;;;;;;8.95;6.00;;;;;;;;;;6221667;23;20026;-93
2024/03/22 03:01:37;;;;;;;10.63;5.90;;;;;;;;;;6222872;23;20016;-93
2024/03/22 03:04:03;;;;;;;8.15;5.38;;;;;;;;;;6221252;23;20384;-93
2024/03/22 03:06:30;;;;;;;9.85;5.07;;;;;;;;;;6246714;23;20016;-93
2024/03/22 03:08:56;;;;;;;8.35;5.07;;;;;;;;;;6221193;23;20016;-93
2024/03/22 03:11:22;;;;;;;7.38;5.28;;;;;;;;;;6246632;23;20020;-93
2024/03/22 03:13:49;;;;;;;10.30;6.00;;;;;;;;;;6221603;23;20456;-92
2024/03/22 03:16:15;;;;;;;8.07;5.70;;;;;;;;;;6222012;23;20024;-93
2024/03/22 03:18:41;;;;;;;7.28;5.25;;;;;;;;;;6221480;23;20388;-93
2024/03/22 03:21:08;;;;;;;12.00;5.63;;;;;;;;;;6221545;23;20348;-93
2024/03/22 03:23:34;;;;;;;8.50;5.22;;;;;;;;;;6221441;23;20024;-94
2024/03/22 03:26:01;;;;;;;10.55;5.22;;;;;;;;;;6221393;23;20024;-93
2024/03/22 03:28:27;;;;;;;7.55;5.40;;;;;;;;;;6246695;23;20022;-93
2024/03/22 03:30:53;;;;;;;9.35;5.95;;;;;;;;;;6247009;23;20020;-93
2024/03/22 03:33:20;;;;;;;11.55;6.00;;;;;;;;;;6246489;23;20016;-93
2024/03/22 03:35:46;;;;;;;11.18;6.50;;;;;;;;;;6220396;23;20020;-93
2024/03/22 03:38:13;;;;;;;7.00;5.78;;;;;;;;;;6221289;23;20024;-93
2024/03/22 03:40:39;;;;;;;10.13;5.72;;;;;;;;;;6221675;23;20359;-93
2024/03/22 03:43:05;;;;;;;9.10;5.82;;;;;;;;;;6246953;23;20022;-93
2024/03/22 03:45:32;;;;;;;13.73;5.68;;;;;;;;;;6221654;23;20020;-93
2024/03/22 03:47:58;;;;;;;6.30;5.05;;;;;;;;;;6221190;23;20016;-93
2024/03/22 03:50:24;;;;;;;6.90;4.97;;;;;;;;;;6246358;23;20027;-93
2024/03/22 03:52:50;;;;;;;8.63;5.03;;;;;;;;;;6246500;23;20020;-93
2024/03/22 03:55:17;;;;;;;8.68;5.18;;;;;;;;;;6221619;23;20016;-93
2024/03/22 03:57:43;;;;;;;10.55;5.63;;;;;;;;;;6246598;23;20020;-93
2024/03/22 04:00:09;;;;;;;7.53;5.47;;;;;;;;;;6247254;23;20024;-93
2024/03/22 04:02:35;;;;;;;11.18;5.20;;;;;;;;;;6262762;23;20020;-93
2024/03/22 04:05:02;;;;;;;5.22;4.55;;;;;;;;;;6252480;23;20020;-94
2024/03/22 04:07:29;;;;;;;7.93;4.40;;;;;;;;;;6221369;23;20020;-93
2024/03/22 04:09:55;;;;;;;11.75;5.00;;;;;;;;;;6221243;23;20054;-93
2024/03/22 04:12:21;;;;;;;9.57;5.53;;;;;;;;;;6221793;23;20036;-94
2024/03/22 04:14:47;;;;;;;9.57;5.03;;;;;;;;;;6221347;23;20024;-93
2024/03/22 04:17:14;;;;;;;13.10;7.22;;;;;;;;;;6249198;23;20082;-93
2024/03/22 04:19:40;;;;;;;9.68;5.88;;;;;;;;;;6247332;23;20019;-93
2024/03/22 04:22:06;;;;;;;11.20;6.45;;;;;;;;;;6223546;23;20016;-93
2024/03/22 04:24:33;;;;;;;13.00;6.63;;;;;;;;;;6246782;23;20020;-94
2024/03/22 04:26:59;;;;;;;15.88;7.35;;;;;;;;;;6221740;23;20016;-93
2024/03/22 04:29:25;;;;;;;10.38;6.20;;;;;;;;;;6222240;23;20541;-93
2024/03/22 04:31:51;;;;;;;13.65;7.53;;;;;;;;;;6222318;23;20030;-94
2024/03/22 04:34:18;;;;;;;15.02;6.90;;;;;;;;;;6248281;23;20020;-93
2024/03/22 04:36:44;;;;;;;14.75;6.78;;;;;;;;;;6224394;23;20046;-94
2024/03/22 04:39:12;;;;;;;11.02;6.53;;;;;;;;;;6223093;23;20021;-93
2024/03/22 04:41:38;;;;;;;11.10;7.53;;;;;;;;;;6220740;23;20053;-93
2024/03/22 04:44:04;;;;;;;12.93;6.82;;;;;;;;;;6220693;23;20028;-93
2024/03/22 04:46:31;;;;;;;16.80;7.90;;;;;;;;;;6245868;23;20046;-93
2024/03/22 04:48:57;;;;;;;12.23;7.57;;;;;;;;;;6220915;23;20449;-93
2024/03/22 04:51:23;;;;;;;14.35;8.15;;;;;;;;;;6245968;23;20024;-94
2024/03/22 04:53:49;;;;;;;19.40;9.75;;;;;;;;;;6246139;23;20020;-94
2024/03/22 04:56:16;;;;;;;18.17;10.23;;;;;;;;;;6220759;23;20027;-93
2024/03/22 04:58:42;;;;;;;14.43;8.65;;;;;;;;;;6220822;23;20017;-93
2024/03/22 05:01:08;;;;;;;16.77;9.77;;;;;;;;;;6220676;23;20020;-93
2024/03/22 05:03:34;;;;;;;15.52;9.10;;;;;;;;;;6245999;23;20020;-93
2024/03/22 05:06:03;;;;;;;14.63;8.05;;;;;;;;;;6220134;23;20020;-93
2024/03/22 05:08:29;;;;;;;13.30;7.32;;;;;;;;;;6245885;23;20042;-93
2024/03/22 05:10:55;;;;;;;16.55;8.55;;;;;;;;;;6221290;23;20141;-93
2024/03/22 05:13:22;;;;;;;20.13;8.60;;;;;;;;;;6246021;23;20395;-93
2024/03/22 05:15:48;;;;;;;18.17;9.70;;;;;;;;;;6245451;23;20028;-94
2024/03/22 05:18:14;;;;;;;18.92;8.88;;;;;;;;;;6238750;23;20016;-93
2024/03/22 05:20:40;;;;;;;20.45;9.00;;;;;;;;;;6222195;23;20507;-93
2024/03/22 05:23:07;;;;;;;14.63;8.50;;;;;;;;;;6221086;23;20353;-93
2024/03/22 05:25:33;;;;;;;21.00;10.07;;;;;;;;;;6221310;23;20020;-94
2024/03/22 05:27:59;;;;;;;19.20;9.38;;;;;;;;;;6223251;23;20023;-93
2024/03/22 05:30:25;;;;;;;13.35;8.65;;;;;;;;;;6222439;23;20020;-93
2024/03/22 05:32:52;;;;;;;16.65;9.77;;;;;;;;;;6222363;23;20020;-93
2024/03/22 05:35:18;;;;;;;15.82;8.52;;;;;;;;;;6222595;23;20322;-92
2024/03/22 05:37:44;;;;;;;23.67;10.05;;;;;;;;;;6222515;23;20020;-93
2024/03/22 05:40:11;;;;;;;23.35;10.27;;;;;;;;;;6223014;23;20024;-93
2024/03/22 05:42:37;;;;;;;19.20;10.05;;;;;;;;;;6222312;23;20023;-94
2024/03/22 05:45:04;;;;;;;21.00;10.43;;;;;;;;;;6222339;23;20026;-92
2024/03/22 05:47:31;;;;;;;18.67;9.30;;;;;;;;;;6222900;23;20024;-93
2024/03/22 05:49:57;;;;;;;17.58;9.63;;;;;;;;;;6247673;23;20448;-93
2024/03/22 05:52:24;;;;;;;22.13;9.75;;;;;;;;;;6222680;23;20017;-93
2024/03/22 05:54:51;;;;;;;37.92;11.82;;;;;;;;;;6247609;23;20047;-93
2024/03/22 05:57:17;;;;;;;36.75;10.65;;;;;;;;;;6222240;23;20453;-92
2024/03/22 05:59:44;;;;;;;29.05;10.27;;;;;;;;;;6222405;23;20024;-93
2024/03/22 06:02:10;;;;;;;26.92;10.18;;;;;;;;;;6222454;23;20021;-93
2024/03/22 06:04:36;;;;;;;42.53;18.77;;;;;;;;;;6222111;23;20020;-94
2024/03/22 06:07:04;;;;;;;84.75;56.08;;;;;;;;;;6222340;23;20445;-93
2024/03/22 06:09:45;;;;;;;46.45;32.33;;;;;;;;;;6222194;23;20020;-91
2024/03/22 06:12:16;;;;;;;67.00;39.75;;;;;;;;;;6247931;23;20020;-93
2024/03/22 06:14:42;;;;;;;67.18;40.50;;;;;;;;;;6247177;23;20020;-93
2024/03/22 06:17:09;;;;;;;54.42;36.13;;;;;;;;;;6222225;23;20016;-93
2024/03/22 06:19:36;;;;;;;25.20;15.23;;;;;;;;;;6247144;23;20469;-93
2024/03/22 06:22:02;;;;;;;27.02;15.65;;;;;;;;;;6222201;23;20020;-93
2024/03/22 06:24:29;;;;;;;24.55;12.25;;;;;;;;;;6222057;23;20027;-93
2024/03/22 06:26:55;;;;;;;30.52;12.90;;;;;;;;;;6247255;23;20020;-93
2024/03/22 06:29:21;;;;;;;21.92;11.32;;;;;;;;;;6247460;23;20026;-93
2024/03/22 06:31:50;;;;;;;26.63;12.80;;;;;;;;;;6228868;23;20030;-93
2024/03/22 06:34:16;;;;;;;23.00;12.98;;;;;;;;;;6233857;23;20016;-92
2024/03/22 06:36:47;;;;;;;18.02;10.70;;;;;;;;;;6227717;23;20452;-94
2024/03/22 06:39:14;;;;;;;25.05;12.85;;;;;;;;;;6224864;23;20043;-93
2024/03/22 06:41:41;;;;;;;28.77;12.98;;;;;;;;;;6250347;23;20020;-91
2024/03/22 06:44:09;;;;;;;20.63;13.85;;;;;;;;;;6223227;23;20020;-93
2024/03/22 06:46:35;;;;;;;17.92;11.38;;;;;;;;;;6221680;23;20069;-93
2024/03/22 06:49:01;;;;;;;19.70;12.35;;;;;;;;;;6221774;23;20020;-92
2024/03/22 06:51:28;;;;;;;18.35;11.35;;;;;;;;;;6221382;23;20447;-93
2024/03/22 06:53:54;;;;;;;17.45;10.82;;;;;;;;;;6221621;23;20016;-93
2024/03/22 06:56:20;;;;;;;19.77;11.13;;;;;;;;;;6221787;23;20024;-93
2024/03/22 06:58:47;;;;;;;53.85;22.02;;;;;;;;;;6221659;23;20071;-92
2024/03/22 07:01:13;;;;;;;40.92;18.52;;;;;;;;;;6221553;23;20024;-93
2024/03/22 07:03:39;;;;;;;41.08;20.15;;;;;;;;;;6221242;23;20349;-92
2024/03/22 07:06:07;;;;;;;39.53;18.80;;;;;;;;;;6221944;23;20024;-92
2024/03/22 07:08:34;;;;;;;28.85;15.77;;;;;;;;;;6222243;23;20077;-93
2024/03/22 07:11:02;;;;;;;29.08;16.30;;;;;;;;;;6221862;23;20020;-93
2024/03/22 07:13:28;;;;;;;24.27;15.80;;;;;;;;;;6221715;23;20027;-94
2024/03/22 07:15:54;;;;;;;27.30;15.35;;;;;;;;;;6221787;23;20090;-91
2024/03/22 07:18:22;;;;;;;25.67;15.38;;;;;;;;;;6197055;23;20027;-92
2024/03/22 07:20:48;;;;;;;23.80;14.35;;;;;;;;;;6221121;23;20028;-92
2024/03/22 07:23:15;;;;;;;23.17;14.73;;;;;;;;;;6221673;23;20027;-93
2024/03/22 07:25:45;;;;;;;22.95;14.45;;;;;;;;;;6246894;23;20024;-92
2024/03/22 07:28:12;;;;;;;21.05;13.93;;;;;;;;;;6247130;23;20453;-91
2024/03/22 07:30:38;;;;;;;19.77;13.07;;;;;;;;;;6246916;23;20027;-93
2024/03/22 07:33:04;;;;;;;26.55;14.07;;;;;;;;;;6246795;23;20016;-92
2024/03/22 07:35:31;;;;;;;18.63;12.80;;;;;;;;;;6221387;23;20066;-93
2024/03/22 07:37:57;;;;;;;21.80;13.60;;;;;;;;;;6220952;23;20027;-91
2024/03/22 07:40:23;;;;;;;24.77;14.32;;;;;;;;;;6246386;23;20024;-92
2024/03/22 07:42:50;;;;;;;20.05;12.90;;;;;;;;;;6220940;23;20016;-92
2024/03/22 07:45:16;;;;;;;22.30;14.45;;;;;;;;;;6221528;23;20020;-91
2024/03/22 07:47:43;;;;;;;25.20;15.30;;;;;;;;;;6261255;23;20016;-92
2024/03/22 07:50:09;;;;;;;21.55;13.55;;;;;;;;;;6221127;23;20032;-93
2024/03/22 07:52:36;;;;;;;20.85;14.60;;;;;;;;;;6246596;23;20016;-91
2024/03/22 07:55:02;;;;;;;22.30;14.07;;;;;;;;;;6220914;23;20026;-91
2024/03/22 07:57:32;;;;;;;26.08;14.88;;;;;;;;;;6246739;23;20020;-91
2024/03/22 07:59:58;;;;;;;23.90;14.88;;;;;;;;;;6246177;23;20103;-91
2024/03/22 08:02:25;;;;;;;19.20;12.75;;;;;;;;;;6220780;23;20027;-91
2024/03/22 08:04:51;;;;;;;25.00;15.35;;;;;;;;;;6221307;23;20020;-91
2024/03/22 08:07:17;;;;;;;23.38;15.48;;;;;;;;;;6220958;23;20020;-92
2024/03/22 08:09:43;;;;;;;23.42;14.48;;;;;;;;;;6246483;23;20353;-92
2024/03/22 08:12:10;;;;;;;21.45;14.05;;;;;;;;;;6220296;23;20019;-92
2024/03/22 08:14:36;;;;;;;21.23;13.07;;;;;;;;;;6221310;23;20391;-91
2024/03/22 08:17:03;;;;;;;22.83;14.18;;;;;;;;;;6221285;23;20020;-93
2024/03/22 08:19:29;;;;;;;21.83;13.77;;;;;;;;;;6220778;23;20078;-91
2024/03/22 08:21:56;;;;;;;24.92;15.23;;;;;;;;;;6221080;23;20035;-91
2024/03/22 08:24:22;;;;;;;24.55;15.40;;;;;;;;;;6220791;23;20020;-89
2024/03/22 08:26:48;;;;;;;21.80;14.20;;;;;;;;;;6245872;23;20020;-93
2024/03/22 08:29:14;;;;;;;23.25;15.27;;;;;;;;;;6220530;23;20027;-91
2024/03/22 08:31:41;;;;;;;22.05;14.50;;;;;;;;;;6220781;23;20355;-92
2024/03/22 08:34:08;;;;;;;23.02;15.23;;;;;;;;;;6220745;23;20016;-91
2024/03/22 08:36:34;;;;;;;24.75;16.20;;;;;;;;;;6220965;23;20338;-92
2024/03/22 08:39:01;;;;;;;24.88;15.30;;;;;;;;;;6245810;23;20027;-92
2024/03/22 08:41:27;;;;;;;24.65;16.02;;;;;;;;;;6245948;23;20027;-91
2024/03/22 08:43:53;;;;;;;25.80;15.90;;;;;;;;;;6220358;23;20020;-92
2024/03/22 08:46:21;;;;;;;26.48;16.25;;;;;;;;;;6246162;23;20051;-92
2024/03/22 08:48:47;;;;;;;22.88;14.52;;;;;;;;;;6221289;23;20027;-92
2024/03/22 08:51:14;;;;;;;24.52;15.57;;;;;;;;;;6245743;23;20016;-91
2024/03/22 08:53:40;;;;;;;25.70;15.95;;;;;;;;;;6245562;23;20024;-93
2024/03/22 08:56:06;;;;;;;21.02;14.50;;;;;;;;;;6220419;23;20349;-92
2024/03/22 08:58:32;;;;;;;23.55;15.90;;;;;;;;;;6221000;23;20020;-92
2024/03/22 09:00:59;;;;;;;24.50;15.30;;;;;;;;;;6222475;23;20020;-92
2024/03/22 09:03:25;;;;;;;22.92;15.07;;;;;;;;;;6237692;23;20030;-91
2024/03/22 09:05:55;;;;;;;21.80;14.13;;;;;;;;;;6222902;23;20020;-92
2024/03/22 09:08:21;;;;;;;20.83;13.70;;;;;;;;;;6222990;23;20020;-93
2024/03/22 09:10:48;;;;;;;21.02;13.88;;;;;;;;;;6222786;23;20344;-91
2024/03/22 09:13:14;;;;;;;24.27;14.50;;;;;;;;;;6222931;23;20023;-91
2024/03/22 09:15:40;;;;;;;20.05;14.30;;;;;;;;;;6248413;23;20030;-90
2024/03/22 09:18:07;;;;;;;21.50;13.50;;;;;;;;;;6247643;23;20020;-91
2024/03/22 09:20:33;;;;;;;20.92;13.50;;;;;;;;;;6247649;23;20020;-92
2024/03/22 09:22:59;;;;;;;20.23;13.43;;;;;;;;;;6223053;23;20020;-91
2024/03/22 09:25:25;;;;;;;20.17;13.07;;;;;;;;;;6248142;23;20511;-92
2024/03/22 09:27:52;;;;;;;23.95;12.57;;;;;;;;;;6223059;23;20034;-90
2024/03/22 09:30:19;;;;;;;18.48;12.13;;;;;;;;;;6223065;23;20358;-91
2024/03/22 09:32:45;;;;;;;19.58;11.95;;;;;;;;;;6223016;23;20024;-92
2024/03/22 09:35:14;;;;;;;20.33;12.57;;;;;;;;;;6247960;23;20016;-91
2024/03/22 09:37:41;;;;;;;23.48;14.07;;;;;;;;;;6223280;23;20024;-89
2024/03/22 09:40:07;;;;;;;19.75;11.77;;;;;;;;;;6222413;23;20020;-88
2024/03/22 09:42:36;;;;;;;25.52;15.35;;;;;;;;;;6222438;23;20020;-89
2024/03/22 09:45:03;;;;;;;21.92;14.30;;;;;;;;;;6247177;23;20031;-89
2024/03/22 09:47:29;;;;;;;15.90;10.68;;;;;;;;;;6222517;23;20020;-90
2024/03/22 09:49:55;;;;;;;12.45;9.93;;;;;;;;;;6222535;23;20028;-90
2024/03/22 09:52:22;;;;;;;21.13;10.93;;;;;;;;;;6222267;23;20026;-88
2024/03/22 09:54:48;;;;;;;16.45;10.82;;;;;;;;;;6222445;23;20712;-90
2024/03/22 09:57:18;;;;;;;12.50;9.40;;;;;;;;;;6222258;23;20510;-89
2024/03/22 09:59:45;;;;;;;16.30;9.57;;;;;;;;;;6247436;23;20020;-89
2024/03/22 10:02:12;;;;;;;11.55;9.15;;;;;;;;;;6222552;23;20023;-89
2024/03/22 10:04:39;;;;;;;14.00;9.18;;;;;;;;;;6222215;23;20511;-88
2024/03/22 10:07:05;;;;;;;12.57;9.10;;;;;;;;;;6222087;23;20030;-91
2024/03/22 10:09:32;;;;;;;13.77;9.70;;;;;;;;;;6222357;23;20020;-90
2024/03/22 10:11:58;;;;;;;15.70;8.27;;;;;;;;;;6222323;23;20020;-90
2024/03/22 10:14:25;;;;;;;12.60;8.38;;;;;;;;;;6247494;23;20020;-90
2024/03/22 10:16:55;;;;;;;10.52;7.95;;;;;;;;;;6253391;23;20031;-89
2024/03/22 10:19:22;;;;;;;11.65;8.27;;;;;;;;;;6232618;23;20031;-89
2024/03/22 10:22:02;;;;;;;17.80;8.20;;;;;;;;;;6222021;23;20349;-89
2024/03/22 10:24:29;;;;;;;11.63;8.07;;;;;;;;;;6247120;23;20090;-88
2024/03/22 10:26:55;;;;;;;10.85;7.53;;;;;;;;;;6220817;23;20020;-89
2024/03/22 10:29:22;;;;;;;11.15;8.07;;;;;;;;;;6221907;23;20020;-88
2024/03/22 10:31:49;;;;;;;26.63;9.95;;;;;;;;;;6247249;23;20016;-89
2024/03/22 10:34:15;;;;;;;11.85;7.95;;;;;;;;;;6246840;23;20338;-88
2024/03/22 10:36:42;;;;;;;8.48;6.68;;;;;;;;;;6247027;23;20027;-88
2024/03/22 10:39:10;;;;;;;13.85;7.78;;;;;;;;;;6246596;23;20341;-88
2024/03/22 10:41:37;;;;;;;14.18;7.97;;;;;;;;;;6221964;23;20024;-88
2024/03/22 10:44:04;;;;;;;16.10;8.27;;;;;;;;;;6246988;23;20021;-87
2024/03/22 10:46:31;;;;;;;12.57;7.53;;;;;;;;;;6221903;23;20020;-88
2024/03/22 10:48:57;;;;;;;11.05;7.22;;;;;;;;;;6222011;23;20024;-88
2024/03/22 10:51:25;;;;;;;13.30;6.90;;;;;;;;;;6247146;23;20020;-88
2024/03/22 10:53:52;;;;;;;9.77;6.35;;;;;;;;;;6221309;23;20016;-88
2024/03/22 10:56:19;;;;;;;9.77;7.10;;;;;;;;;;6221677;23;20020;-88
2024/03/22 10:58:47;;;;;;;11.23;6.63;;;;;;;;;;6247152;23;20051;-88
2024/03/22 11:01:23;;;;;;;11.68;7.00;;;;;;;;;;6246920;23;20376;-89
2024/03/22 11:03:49;;;;;;;12.43;8.80;;;;;;;;;;6221685;23;20016;-89
2024/03/22 11:06:23;;;;;;;13.38;7.63;;;;;;;;;;6246698;23;20030;-88
2024/03/22 11:08:52;;;;;;;13.68;8.05;;;;;;;;;;6221394;23;20016;-89
2024/03/22 11:11:19;;;;;;;10.63;7.63;;;;;;;;;;6221344;23;20027;-89
2024/03/22 11:13:50;;;;;;;13.60;8.35;;;;;;;;;;6221552;23;20039;-88
2024/03/22 11:16:16;;;;;;;11.48;8.90;;;;;;;;;;6221545;23;20024;-90
2024/03/22 11:18:43;;;;;;;15.82;9.07;;;;;;;;;;6246291;23;20070;-91
2024/03/22 11:21:09;;;;;;;15.40;9.63;;;;;;;;;;6246257;23;20029;-88
2024/03/22 11:23:36;;;;;;;16.70;9.00;;;;;;;;;;6245994;23;20020;-89
2024/03/22 11:26:03;;;;;;;14.77;8.27;;;;;;;;;;6221235;23;20020;-89
2024/03/22 11:28:33;;;;;;;14.07;8.95;;;;;;;;;;6221135;23;20452;-87
2024/03/22 11:30:59;;;;;;;13.90;8.38;;;;;;;;;;6246491;23;20016;-89
2024/03/22 11:33:27;;;;;;;11.20;7.90;;;;;;;;;;6236277;23;20032;-88
2024/03/22 11:35:53;;;;;;;11.80;8.00;;;;;;;;;;6221500;23;20020;-88
2024/03/22 11:38:20;;;;;;;12.15;8.00;;;;;;;;;;6220958;23;20028;-90
2024/03/22 11:40:48;;;;;;;16.15;8.07;;;;;;;;;;6220939;23;20322;-90
2024/03/22 11:43:15;;;;;;;10.93;7.63;;;;;;;;;;6221093;23;20017;-89
2024/03/22 11:45:41;;;;;;;12.38;7.50;;;;;;;;;;6221078;23;20024;-90
2024/03/22 11:48:08;;;;;;;14.45;8.18;;;;;;;;;;6221664;23;20616;-89
2024/03/22 11:50:34;;;;;;;12.80;7.85;;;;;;;;;;6246560;23;20349;-88
2024/03/22 11:53:00;;;;;;;10.85;7.85;;;;;;;;;;6246293;23;20046;-89
2024/03/22 11:55:28;;;;;;;10.80;7.90;;;;;;;;;;6220910;23;20020;-90
2024/03/22 11:57:54;;;;;;;13.23;7.90;;;;;;;;;;6246630;23;20016;-90
2024/03/22 12:00:22;;;;;;;12.75;7.90;;;;;;;;;;6221717;23;20031;-89
2024/03/22 12:02:48;;;;;;;9.10;7.78;;;;;;;;;;6246190;23;20021;-88
2024/03/22 12:05:15;;;;;;;18.48;8.93;;;;;;;;;;6246229;23;20024;-89
2024/03/22 12:07:41;;;;;;;15.02;7.68;;;;;;;;;;6221117;23;20020;-87
2024/03/22 12:10:07;;;;;;;10.13;7.80;;;;;;;;;;6246139;23;20076;-90
2024/03/22 12:12:34;;;;;;;10.63;7.70;;;;;;;;;;6220837;23;20019;-88
2024/03/22 12:15:00;;;;;;;11.90;7.40;;;;;;;;;;6221087;23;20027;-89
2024/03/22 12:17:26;;;;;;;10.88;7.53;;;;;;;;;;6246092;23;20026;-88
2024/03/22 12:19:54;;;;;;;17.75;8.05;;;;;;;;;;6246085;23;20082;-90
2024/03/22 12:22:20;;;;;;;29.23;9.40;;;;;;;;;;6246622;23;20341;-89
2024/03/22 12:24:46;;;;;;;13.05;8.43;;;;;;;;;;6220540;23;20020;-88
2024/03/22 12:27:12;;;;;;;15.20;8.07;;;;;;;;;;6245848;23;20070;-90
2024/03/22 12:29:39;;;;;;;11.80;7.85;;;;;;;;;;6220756;23;20024;-89
2024/03/22 12:32:06;;;;;;;11.75;8.18;;;;;;;;;;6221219;23;20027;-89
2024/03/22 12:34:33;;;;;;;26.77;9.27;;;;;;;;;;6246663;23;20020;-90
2024/03/22 12:37:00;;;;;;;14.23;7.47;;;;;;;;;;6221263;23;20020;-88
2024/03/22 12:39:26;;;;;;;11.30;8.27;;;;;;;;;;6246808;23;20023;-92
2024/03/22 12:41:53;;;;;;;9.68;8.05;;;;;;;;;;6220876;23;20020;-88
2024/03/22 12:44:19;;;;;;;12.82;9.23;;;;;;;;;;6220929;23;20070;-91
2024/03/22 12:46:46;;;;;;;17.45;8.80;;;;;;;;;;6224702;23;20038;-91
2024/03/22 12:49:12;;;;;;;13.25;8.00;;;;;;;;;;6257307;23;20021;-88
2024/03/22 12:51:38;;;;;;;12.15;8.98;;;;;;;;;;6220107;23;20023;-90
2024/03/22 12:54:06;;;;;;;14.05;8.95;;;;;;;;;;6220570;23;20020;-88
2024/03/22 12:56:32;;;;;;;11.55;8.18;;;;;;;;;;6220738;23;20038;-90
2024/03/22 12:58:59;;;;;;;12.85;8.00;;;;;;;;;;6220792;23;20030;-88
2024/03/22 13:01:25;;;;;;;11.48;8.05;;;;;;;;;;6220640;23;20051;-89
2024/03/22 13:03:51;;;;;;;18.77;7.90;;;;;;;;;;6246214;23;20017;-88
2024/03/22 13:06:18;;;;;;;12.80;7.97;;;;;;;;;;6222521;23;20346;-94
2024/03/22 13:08:44;;;;;;;14.82;8.00;;;;;;;;;;6221040;23;20318;-94
2024/03/22 13:11:10;;;;;;;14.05;7.78;;;;;;;;;;6246178;23;20016;-92
2024/03/22 13:13:37;;;;;;;11.93;8.50;;;;;;;;;;6220780;23;20020;-89
2024/03/22 13:16:03;;;;;;;17.55;8.60;;;;;;;;;;6221219;23;20017;-91
2024/03/22 13:18:30;;;;;;;24.13;8.82;;;;;;;;;;6220783;23;20020;-90
2024/03/22 13:20:56;;;;;;;13.35;8.43;;;;;;;;;;6245985;23;20341;-90
2024/03/22 13:23:22;;;;;;;12.25;7.97;;;;;;;;;;6220748;23;20039;-92
2024/03/22 13:25:49;;;;;;;12.88;8.23;;;;;;;;;;6220719;23;20024;-91
2024/03/22 13:28:20;;;;;;;10.77;8.13;;;;;;;;;;6220607;23;20089;-89
2024/03/22 13:30:46;;;;;;;13.82;8.43;;;;;;;;;;6221081;23;20050;-90
2024/03/22 13:33:12;;;;;;;13.55;8.27;;;;;;;;;;6246493;23;20024;-91
2024/03/22 13:35:41;;;;;;;12.45;8.98;;;;;;;;;;6246513;23;20315;-92
2024/03/22 13:38:13;;;;;;;10.95;8.00;;;;;;;;;;6221192;23;20028;-91
2024/03/22 13:40:40;;;;;;;12.57;8.30;;;;;;;;;;6221042;23;20024;-90
2024/03/22 13:43:07;;;;;;;10.55;8.70;;;;;;;;;;6245839;23;20023;-91
2024/03/22 13:45:33;;;;;;;15.27;9.25;;;;;;;;;;6246278;23;20020;-93
2024/03/22 13:47:59;;;;;;;12.30;8.10;;;;;;;;;;6222050;23;20388;-88
2024/03/22 13:50:26;;;;;;;12.25;7.22;;;;;;;;;;6247647;23;20461;-89
2024/03/22 13:52:52;;;;;;;10.60;7.57;;;;;;;;;;6222699;23;20016;-89
2024/03/22 13:55:18;;;;;;;11.13;6.82;;;;;;;;;;6222505;23;20456;-89
2024/03/22 13:57:45;;;;;;;9.55;7.63;;;;;;;;;;6223197;23;20020;-93
2024/03/22 14:00:14;;;;;;;17.27;7.60;;;;;;;;;;6222593;23;20341;-93
2024/03/22 14:02:41;;;;;;;9.25;6.75;;;;;;;;;;6222914;23;20020;-92
2024/03/22 14:05:08;;;;;;;9.93;6.55;;;;;;;;;;6224392;23;20016;-92
2024/03/22 14:07:34;;;;;;;8.80;7.43;;;;;;;;;;6222490;23;20024;-90
2024/03/22 14:10:02;;;;;;;11.75;8.45;;;;;;;;;;6247962;23;20016;-89
2024/03/22 14:12:28;;;;;;;12.25;7.30;;;;;;;;;;6222192;23;20020;-90
2024/03/22 14:14:55;;;;;;;10.75;7.43;;;;;;;;;;6222102;23;20020;-91
2024/03/22 14:17:21;;;;;;;9.70;7.30;;;;;;;;;;6221776;23;20334;-89
2024/03/22 14:19:47;;;;;;;13.50;7.95;;;;;;;;;;6221516;23;20023;-91
2024/03/22 14:22:13;;;;;;;21.27;6.65;;;;;;;;;;6221195;23;20017;-90
2024/03/22 14:24:40;;;;;;;13.10;6.53;;;;;;;;;;6221471;23;20028;-90
2024/03/22 14:27:06;;;;;;;8.32;6.65;;;;;;;;;;6222038;23;20020;-89